LiveATC.Net - Listen to live air traffic control over the Internet!


ICAO: UUEE  IATA: SVO   Airport: Sheremetyevo Airport
City: Moscow
Country: Russia   Continent: Europe
UUEE METAR Weather: UUEE 240630Z 27003MPS 7000 1100SW R06R/1100D R06C/1400D -SN BR OVC004 M08/M09 Q1034 RESN R06R/520235 R06C/520226 R06L/550235 TEMPO 0700 FZFG OVC003
UUEE Flight Activity (FlightAware)

UUEE Twr/App/Radar
Feed Status: UP   Listeners: 6
Listen in your browser - HTML5 player (in browser, HTML5)
Click here to listen with your own player (launches your MP3 player)
Archive Access: UUEE Twr/App/Radar
FacilityFrequency
Sheremetyevo Radar118.100
Sheremetyevo Radar/Departure126.600
Sheremetyevo Tower131.500
Sheremetyevo Tower (Rwy 24R/06L)118.700

NOTICE

Unauthorized use prohibited. See LiveATC.net Terms of Service


Airport/ARTCC Code
Frequency Search
(e.g., 124.400, 128.75)
Site-wide search
 


Browse Feeds
Top 50 Feeds
HF Oceanic Feeds
Coverage Map
Bad Weather Areas

LiveATC FAQ
Offer LiveATC feed
Contact LiveATC.net
Press Inquiries

LiveATC on iPhone
LiveATC on Android

LiveATC Mobile
(Mobile browser)

ATC Audio Archives
Interesting Recordings

LiveATC Forums


Home Page
About LiveATC.net
Make a Donation
Terms of Use
Privacy Policy

Canadian Air Freqs

AIRMETs/SIGMETs

FAA Airport Status
NAS Status
Arrival Demand


Server Software By:
Icecast.org
Liquidsoap